sensor_id;sensor_type;location;lat;lon;timestamp;P1;durP1;ratioP1;P2;durP2;ratioP2
29302;SDS011;60019;45.556;12.004;2023-02-12T00:00:05;80.82;;;49.38;;
29302;SDS011;60019;45.556;12.004;2023-02-12T00:06:15;94.85;;;50.47;;
29302;SDS011;60019;45.556;12.004;2023-02-12T00:12:17;86.68;;;51.88;;
29302;SDS011;60019;45.556;12.004;2023-02-12T00:18:18;98.35;;;55.78;;
29302;SDS011;60019;45.556;12.004;2023-02-12T00:24:20;104.22;;;59.28;;
29302;SDS011;60019;45.556;12.004;2023-02-12T00:30:21;103.05;;;60.00;;
29302;SDS011;60019;45.556;12.004;2023-02-12T00:36:24;95.75;;;58.88;;
29302;SDS011;60019;45.556;12.004;2023-02-12T00:42:27;116.75;;;62.17;;
29302;SDS011;60019;45.556;12.004;2023-02-12T00:48:30;114.60;;;60.95;;
29302;SDS011;60019;45.556;12.004;2023-02-12T00:54:31;101.13;;;57.55;;
29302;SDS011;60019;45.556;12.004;2023-02-12T01:00:33;102.78;;;60.25;;
29302;SDS011;60019;45.556;12.004;2023-02-12T01:06:34;111.75;;;61.90;;
29302;SDS011;60019;45.556;12.004;2023-02-12T01:12:36;111.25;;;59.28;;
29302;SDS011;60019;45.556;12.004;2023-02-12T01:18:38;109.15;;;60.88;;
29302;SDS011;60019;45.556;12.004;2023-02-12T01:24:40;101.97;;;59.30;;
29302;SDS011;60019;45.556;12.004;2023-02-12T01:30:41;114.20;;;61.58;;
29302;SDS011;60019;45.556;12.004;2023-02-12T01:36:43;95.13;;;54.58;;
29302;SDS011;60019;45.556;12.004;2023-02-12T01:49:32;99.22;;;55.13;;
29302;SDS011;60019;45.556;12.004;2023-02-12T01:55:40;96.75;;;57.13;;
29302;SDS011;60019;45.556;12.004;2023-02-12T02:01:42;99.18;;;57.08;;
29302;SDS011;60019;45.556;12.004;2023-02-12T02:07:44;99.20;;;55.75;;
29302;SDS011;60019;45.556;12.004;2023-02-12T02:13:46;94.10;;;53.95;;
29302;SDS011;60019;45.556;12.004;2023-02-12T02:26:27;94.28;;;53.83;;
29302;SDS011;60019;45.556;12.004;2023-02-12T02:39:18;95.82;;;56.25;;
29302;SDS011;60019;45.556;12.004;2023-02-12T02:45:48;83.13;;;50.47;;
29302;SDS011;60019;45.556;12.004;2023-02-12T02:51:54;93.82;;;54.85;;
29302;SDS011;60019;45.556;12.004;2023-02-12T02:58:08;86.35;;;52.97;;
29302;SDS011;60019;45.556;12.004;2023-02-12T03:04:20;99.97;;;53.92;;
29302;SDS011;60019;45.556;12.004;2023-02-12T03:10:33;91.22;;;54.00;;
29302;SDS011;60019;45.556;12.004;2023-02-12T03:23:00;87.07;;;51.92;;
29302;SDS011;60019;45.556;12.004;2023-02-12T03:29:07;85.10;;;51.83;;
29302;SDS011;60019;45.556;12.004;2023-02-12T03:41:17;88.63;;;51.55;;
29302;SDS011;60019;45.556;12.004;2023-02-12T03:47:45;96.82;;;52.33;;
29302;SDS011;60019;45.556;12.004;2023-02-12T03:53:51;83.47;;;50.70;;
29302;SDS011;60019;45.556;12.004;2023-02-12T03:59:53;91.68;;;53.70;;
29302;SDS011;60019;45.556;12.004;2023-02-12T04:05:54;95.03;;;54.55;;
29302;SDS011;60019;45.556;12.004;2023-02-12T04:31:12;86.00;;;50.40;;
29302;SDS011;60019;45.556;12.004;2023-02-12T04:37:42;90.47;;;54.60;;
29302;SDS011;60019;45.556;12.004;2023-02-12T04:43:48;89.47;;;52.60;;
29302;SDS011;60019;45.556;12.004;2023-02-12T04:49:49;94.85;;;55.35;;
29302;SDS011;60019;45.556;12.004;2023-02-12T04:55:51;94.10;;;53.28;;
29302;SDS011;60019;45.556;12.004;2023-02-12T05:01:52;88.88;;;54.65;;
29302;SDS011;60019;45.556;12.004;2023-02-12T05:07:54;88.65;;;53.72;;
29302;SDS011;60019;45.556;12.004;2023-02-12T05:13:55;91.20;;;55.97;;
29302;SDS011;60019;45.556;12.004;2023-02-12T05:19:57;83.78;;;52.40;;
29302;SDS011;60019;45.556;12.004;2023-02-12T05:25:58;90.25;;;53.97;;
29302;SDS011;60019;45.556;12.004;2023-02-12T05:32:01;84.35;;;52.95;;
29302;SDS011;60019;45.556;12.004;2023-02-12T05:38:04;94.10;;;55.28;;
29302;SDS011;60019;45.556;12.004;2023-02-12T05:44:06;93.50;;;54.67;;
29302;SDS011;60019;45.556;12.004;2023-02-12T05:50:08;81.60;;;51.50;;
29302;SDS011;60019;45.556;12.004;2023-02-12T06:02:22;89.55;;;56.67;;
29302;SDS011;60019;45.556;12.004;2023-02-12T06:08:23;91.38;;;54.30;;
29302;SDS011;60019;45.556;12.004;2023-02-12T06:14:25;88.15;;;54.03;;
29302;SDS011;60019;45.556;12.004;2023-02-12T06:20:26;83.55;;;51.42;;
29302;SDS011;60019;45.556;12.004;2023-02-12T06:26:28;86.18;;;55.15;;
29302;SDS011;60019;45.556;12.004;2023-02-12T06:32:29;87.93;;;55.50;;
29302;SDS011;60019;45.556;12.004;2023-02-12T06:38:33;97.57;;;58.65;;
29302;SDS011;60019;45.556;12.004;2023-02-12T06:44:34;82.47;;;52.60;;
29302;SDS011;60019;45.556;12.004;2023-02-12T06:50:36;84.53;;;54.15;;
29302;SDS011;60019;45.556;12.004;2023-02-12T06:56:37;73.30;;;48.20;;
29302;SDS011;60019;45.556;12.004;2023-02-12T07:02:39;77.78;;;52.05;;
29302;SDS011;60019;45.556;12.004;2023-02-12T07:08:40;74.45;;;49.83;;
29302;SDS011;60019;45.556;12.004;2023-02-12T07:14:42;68.35;;;45.65;;
29302;SDS011;60019;45.556;12.004;2023-02-12T07:20:44;73.55;;;48.28;;
29302;SDS011;60019;45.556;12.004;2023-02-12T07:26:45;73.18;;;48.20;;
29302;SDS011;60019;45.556;12.004;2023-02-12T07:32:47;65.95;;;43.45;;
29302;SDS011;60019;45.556;12.004;2023-02-12T07:38:48;67.07;;;44.60;;
29302;SDS011;60019;45.556;12.004;2023-02-12T07:44:50;71.38;;;45.80;;
29302;SDS011;60019;45.556;12.004;2023-02-12T07:50:52;60.85;;;42.92;;
29302;SDS011;60019;45.556;12.004;2023-02-12T07:56:53;63.03;;;43.08;;
29302;SDS011;60019;45.556;12.004;2023-02-12T08:02:55;60.38;;;40.22;;
29302;SDS011;60019;45.556;12.004;2023-02-12T08:08:57;58.00;;;38.60;;
29302;SDS011;60019;45.556;12.004;2023-02-12T08:15:00;54.85;;;37.63;;
29302;SDS011;60019;45.556;12.004;2023-02-12T08:21:05;73.15;;;42.80;;
29302;SDS011;60019;45.556;12.004;2023-02-12T08:27:09;62.95;;;41.20;;
29302;SDS011;60019;45.556;12.004;2023-02-12T08:33:11;61.47;;;41.17;;
29302;SDS011;60019;45.556;12.004;2023-02-12T08:39:14;54.20;;;38.15;;
29302;SDS011;60019;45.556;12.004;2023-02-12T08:45:16;66.28;;;41.17;;
29302;SDS011;60019;45.556;12.004;2023-02-12T08:51:18;54.55;;;37.38;;
29302;SDS011;60019;45.556;12.004;2023-02-12T08:57:22;53.45;;;38.72;;
29302;SDS011;60019;45.556;12.004;2023-02-12T09:03:23;52.70;;;37.78;;
29302;SDS011;60019;45.556;12.004;2023-02-12T09:16:12;46.45;;;35.10;;
29302;SDS011;60019;45.556;12.004;2023-02-12T09:22:14;48.20;;;35.17;;
29302;SDS011;60019;45.556;12.004;2023-02-12T09:28:15;45.25;;;32.75;;
29302;SDS011;60019;45.556;12.004;2023-02-12T09:34:17;49.28;;;35.03;;
29302;SDS011;60019;45.556;12.004;2023-02-12T09:46:29;43.35;;;31.48;;
29302;SDS011;60019;45.556;12.004;2023-02-12T09:52:45;48.90;;;31.52;;
29302;SDS011;60019;45.556;12.004;2023-02-12T09:58:51;41.17;;;30.95;;
29302;SDS011;60019;45.556;12.004;2023-02-12T10:05:03;43.08;;;29.70;;
29302;SDS011;60019;45.556;12.004;2023-02-12T10:29:46;51.40;;;33.53;;
29302;SDS011;60019;45.556;12.004;2023-02-12T10:35:49;48.47;;;34.38;;
29302;SDS011;60019;45.556;12.004;2023-02-12T10:42:02;54.35;;;36.95;;
29302;SDS011;60019;45.556;12.004;2023-02-12T10:48:20;44.08;;;32.65;;
29302;SDS011;60019;45.556;12.004;2023-02-12T11:00:37;41.85;;;29.05;;
29302;SDS011;60019;45.556;12.004;2023-02-12T11:06:39;37.13;;;26.90;;
29302;SDS011;60019;45.556;12.004;2023-02-12T11:13:27;42.58;;;27.77;;
29302;SDS011;60019;45.556;12.004;2023-02-12T11:26:40;31.40;;;23.75;;
29302;SDS011;60019;45.556;12.004;2023-02-12T11:32:42;32.75;;;23.10;;
29302;SDS011;60019;45.556;12.004;2023-02-12T11:38:56;31.60;;;22.98;;
29302;SDS011;60019;45.556;12.004;2023-02-12T11:44:59;63.33;;;36.30;;
29302;SDS011;60019;45.556;12.004;2023-02-12T11:51:02;44.05;;;29.13;;
29302;SDS011;60019;45.556;12.004;2023-02-12T12:04:12;41.17;;;24.48;;
29302;SDS011;60019;45.556;12.004;2023-02-12T12:10:20;47.28;;;28.90;;
29302;SDS011;60019;45.556;12.004;2023-02-12T12:17:00;48.63;;;31.08;;
29302;SDS011;60019;45.556;12.004;2023-02-12T12:23:25;47.80;;;29.63;;
29302;SDS011;60019;45.556;12.004;2023-02-12T13:31:56;26.40;;;21.58;;
29302;SDS011;60019;45.556;12.004;2023-02-12T13:38:04;21.55;;;16.35;;
29302;SDS011;60019;45.556;12.004;2023-02-12T14:02:41;17.88;;;13.10;;
29302;SDS011;60019;45.556;12.004;2023-02-12T14:08:45;17.27;;;11.73;;
29302;SDS011;60019;45.556;12.004;2023-02-12T14:21:32;14.85;;;10.77;;
29302;SDS011;60019;45.556;12.004;2023-02-12T14:27:36;14.02;;;10.50;;
29302;SDS011;60019;45.556;12.004;2023-02-12T14:52:38;12.10;;;9.02;;
29302;SDS011;60019;45.556;12.004;2023-02-12T14:58:43;14.48;;;9.98;;
29302;SDS011;60019;45.556;12.004;2023-02-12T15:04:57;15.00;;;10.60;;
29302;SDS011;60019;45.556;12.004;2023-02-12T15:11:13;13.55;;;9.52;;
29302;SDS011;60019;45.556;12.004;2023-02-12T15:17:25;13.43;;;9.80;;
29302;SDS011;60019;45.556;12.004;2023-02-12T15:29:42;13.60;;;10.25;;
29302;SDS011;60019;45.556;12.004;2023-02-12T15:35:46;13.40;;;9.27;;
29302;SDS011;60019;45.556;12.004;2023-02-12T15:41:48;11.98;;;9.05;;
29302;SDS011;60019;45.556;12.004;2023-02-12T15:47:58;13.48;;;9.18;;
29302;SDS011;60019;45.556;12.004;2023-02-12T15:54:10;12.63;;;9.23;;
29302;SDS011;60019;45.556;12.004;2023-02-12T16:14:53;12.85;;;9.50;;
29302;SDS011;60019;45.556;12.004;2023-02-12T16:21:18;16.95;;;9.70;;
29302;SDS011;60019;45.556;12.004;2023-02-12T16:27:29;12.70;;;9.02;;
29302;SDS011;60019;45.556;12.004;2023-02-12T16:46:00;13.55;;;9.23;;
29302;SDS011;60019;45.556;12.004;2023-02-12T16:52:18;14.15;;;9.85;;
29302;SDS011;60019;45.556;12.004;2023-02-12T16:58:31;15.50;;;10.13;;
29302;SDS011;60019;45.556;12.004;2023-02-12T17:04:32;14.65;;;10.30;;
29302;SDS011;60019;45.556;12.004;2023-02-12T17:10:34;16.90;;;12.02;;
29302;SDS011;60019;45.556;12.004;2023-02-12T17:23:47;19.67;;;12.15;;
29302;SDS011;60019;45.556;12.004;2023-02-12T17:42:47;18.88;;;11.80;;
29302;SDS011;60019;45.556;12.004;2023-02-12T17:48:58;21.70;;;12.85;;
29302;SDS011;60019;45.556;12.004;2023-02-12T17:55:00;28.90;;;17.88;;
29302;SDS011;60019;45.556;12.004;2023-02-12T18:01:05;42.25;;;23.48;;
29302;SDS011;60019;45.556;12.004;2023-02-12T18:14:14;53.08;;;29.73;;
29302;SDS011;60019;45.556;12.004;2023-02-12T18:20:16;50.78;;;30.35;;
29302;SDS011;60019;45.556;12.004;2023-02-12T18:26:18;60.45;;;35.22;;
29302;SDS011;60019;45.556;12.004;2023-02-12T18:32:20;60.78;;;39.03;;
29302;SDS011;60019;45.556;12.004;2023-02-12T18:38:23;70.65;;;40.08;;
29302;SDS011;60019;45.556;12.004;2023-02-12T18:44:25;57.80;;;33.70;;
29302;SDS011;60019;45.556;12.004;2023-02-12T18:50:27;50.60;;;30.48;;
29302;SDS011;60019;45.556;12.004;2023-02-12T18:56:32;46.15;;;27.88;;
29302;SDS011;60019;45.556;12.004;2023-02-12T19:02:35;41.42;;;27.23;;
29302;SDS011;60019;45.556;12.004;2023-02-12T19:08:37;48.13;;;26.02;;
29302;SDS011;60019;45.556;12.004;2023-02-12T19:14:39;57.40;;;32.30;;
29302;SDS011;60019;45.556;12.004;2023-02-12T19:20:40;61.85;;;34.40;;
29302;SDS011;60019;45.556;12.004;2023-02-12T19:26:42;53.08;;;29.23;;
29302;SDS011;60019;45.556;12.004;2023-02-12T19:32:44;55.22;;;32.20;;
29302;SDS011;60019;45.556;12.004;2023-02-12T19:38:47;46.70;;;29.92;;
29302;SDS011;60019;45.556;12.004;2023-02-12T19:44:49;56.13;;;34.72;;
29302;SDS011;60019;45.556;12.004;2023-02-12T19:50:50;56.42;;;34.65;;
29302;SDS011;60019;45.556;12.004;2023-02-12T19:56:52;56.88;;;33.35;;
29302;SDS011;60019;45.556;12.004;2023-02-12T20:02:55;49.63;;;33.20;;
29302;SDS011;60019;45.556;12.004;2023-02-12T20:08:56;53.83;;;37.83;;
29302;SDS011;60019;45.556;12.004;2023-02-12T20:14:58;54.47;;;36.22;;
29302;SDS011;60019;45.556;12.004;2023-02-12T20:27:27;44.25;;;30.45;;
29302;SDS011;60019;45.556;12.004;2023-02-12T20:33:29;50.38;;;31.33;;
29302;SDS011;60019;45.556;12.004;2023-02-12T20:39:31;68.47;;;39.17;;
29302;SDS011;60019;45.556;12.004;2023-02-12T20:45:33;87.43;;;48.53;;
29302;SDS011;60019;45.556;12.004;2023-02-12T20:51:35;84.45;;;47.13;;
29302;SDS011;60019;45.556;12.004;2023-02-12T20:57:36;68.88;;;42.75;;
29302;SDS011;60019;45.556;12.004;2023-02-12T21:03:38;68.05;;;41.13;;
29302;SDS011;60019;45.556;12.004;2023-02-12T21:09:42;61.90;;;39.13;;
29302;SDS011;60019;45.556;12.004;2023-02-12T21:15:44;61.00;;;38.72;;
29302;SDS011;60019;45.556;12.004;2023-02-12T21:21:45;59.63;;;36.97;;
29302;SDS011;60019;45.556;12.004;2023-02-12T21:27:47;56.72;;;36.15;;
29302;SDS011;60019;45.556;12.004;2023-02-12T21:33:50;60.92;;;40.00;;
29302;SDS011;60019;45.556;12.004;2023-02-12T21:39:53;62.30;;;41.75;;
29302;SDS011;60019;45.556;12.004;2023-02-12T21:45:54;62.88;;;39.85;;
29302;SDS011;60019;45.556;12.004;2023-02-12T21:51:57;59.28;;;38.13;;
29302;SDS011;60019;45.556;12.004;2023-02-12T21:58:01;51.75;;;33.85;;
29302;SDS011;60019;45.556;12.004;2023-02-12T22:04:03;54.17;;;35.35;;
29302;SDS011;60019;45.556;12.004;2023-02-12T22:10:06;50.90;;;35.10;;
29302;SDS011;60019;45.556;12.004;2023-02-12T22:16:19;51.45;;;34.25;;
29302;SDS011;60019;45.556;12.004;2023-02-12T22:22:23;51.65;;;35.10;;
29302;SDS011;60019;45.556;12.004;2023-02-12T22:28:24;48.97;;;33.58;;
29302;SDS011;60019;45.556;12.004;2023-02-12T22:34:26;46.10;;;30.52;;
29302;SDS011;60019;45.556;12.004;2023-02-12T22:40:27;52.88;;;33.78;;
29302;SDS011;60019;45.556;12.004;2023-02-12T22:46:29;46.55;;;32.13;;
29302;SDS011;60019;45.556;12.004;2023-02-12T22:52:31;54.75;;;35.53;;
29302;SDS011;60019;45.556;12.004;2023-02-12T22:58:33;51.75;;;34.03;;
29302;SDS011;60019;45.556;12.004;2023-02-12T23:04:35;57.25;;;36.80;;
29302;SDS011;60019;45.556;12.004;2023-02-12T23:10:36;56.28;;;36.15;;
29302;SDS011;60019;45.556;12.004;2023-02-12T23:16:38;53.22;;;35.35;;
29302;SDS011;60019;45.556;12.004;2023-02-12T23:39:18;53.42;;;33.88;;
29302;SDS011;60019;45.556;12.004;2023-02-12T23:45:20;57.15;;;34.85;;
29302;SDS011;60019;45.556;12.004;2023-02-12T23:51:21;64.72;;;39.00;;
29302;SDS011;60019;45.556;12.004;2023-02-12T23:57:23;59.78;;;36.80;;
